Terminal Aerodrome Forecast
Issued by NWS Tuscon, AZ

Home | Current Version | Previous Version | Text Only | Print | Product List | Glossary On
Versions: 1 2 3 4 5 6 7 8 9 10 11 12
000
FTUS45 KTWC 280527
TAFTUS
TAF
KTUS 280527Z 2806/2906 29007KT P6SM SKC
     FM281000 14006KT P6SM SKC
     FM282000 29010G18KT P6SM SKC
     FM290300 32007KT P6SM SKC=

USA.gov is the U.S. government's official web portal to all federal, state and local government web resources and services.